Clallam Bay, WA

5:22 AM PDT on September 05, 2015 (GMT -0700)
Lake Ozette | | Change Station
CLOSE
Current Station
Personal Weather Station
Location: Clallam Bay, WA
Elevation: 125 ft
Nearby Weather Stations

Elev 125 ft 48.15 °N, 124.66 °W | Updated 4 seconds ago

Overcast
Overcast
45.9 °F
Feels Like 42 °F
N
8.1
Wind Variable Wind from ENE
Gusts 0.0 mph

Today
High -- | Low -- °F
--% Chance of Precip.
Yesterday
High -- | Low -- °F
Precip. -- in
6:41 AM 7:51 PM
Waning Gibbous, 49% visible
Pressure 30.04 in
Visibility 10.0 miles
Clouds Overcast 900 ft
Windchill 42 °F
Dew Point 38 °F
Humidity 74%
Rainfall 0.00 in
Snow Depth Not available.
UV 0 out of 12
Pollen 3.30 out of 12
Air Quality Not available.
Flu Activity Not available.
METAR KUIL 051153Z AUTO 09003KT 10SM OVC009 08/07 A3004 RMK AO2 SLP173 T00780072 10094 20056 53002
Pressure 30.04 in
Visibility 10.0 miles
Clouds Overcast 900 ft
Windchill 42 °F
Dew Point 38 °F
Humidity 74%
Rainfall 0.00 in
Snow Depth Not available.
UV 0 out of 12
Pollen 3.30 out of 12
Air Quality Not available.
Flu Activity Not available.
METAR KUIL 051153Z AUTO 09003KT 10SM OVC009 08/07 A3004 RMK AO2 SLP173 T00780072 10094 20056 53002

10-Day Weather Forecast

×

Almanac

Astronomy

Sep. 05, 2015 Rise Set
Actual Time
Civil Twilight
Nautical Twilight
Astronomical Twilight
Moon
Length of Visible Light
Length of Day
Tomorrow will be .
, % of the Moon is Illuminated

Today's Extremes

State Highs State Lows

Community

WunderPhotos

Upload Photos

1,852,455 photos uploaded!

WunderBlogs® & News

Nearby

Air Quality

  Air Quality AQ Index Pollutant
Not available.

Snow Depth

Station Depth Elevation

Earthquake Activity

City Distance Mag. Time & Date
Minimum magnitude displayed is 2.5.

Coastal Water Temperatures

Place Temperature

Stations

Nearby Weather Stations

Station Location Temp. Windchill Dew Point Humidity Wind Precip. Elev Updated Type